createdAt,value
2023-02-01T00:01:00.272Z,100822.66
2023-02-01T00:04:02.641Z,100822.66
2023-02-01T00:07:04.855Z,100818.09
2023-02-01T00:10:09.064Z,100822.97
2023-02-01T00:13:11.151Z,100824.81
2023-02-01T00:16:17.596Z,100829.22
2023-02-01T00:19:19.811Z,100818.28
2023-02-01T00:22:22.275Z,100829.22
2023-02-01T00:25:27.505Z,100826.16
2023-02-01T00:28:29.731Z,100817.75
2023-02-01T00:31:32.370Z,100821.41
2023-02-01T00:34:35.545Z,100808.28
2023-02-01T00:37:41.018Z,100817.25
2023-02-01T00:40:43.108Z,100813.03
2023-02-01T00:43:46.606Z,100807.50
2023-02-01T00:46:48.733Z,100812.38
2023-02-01T00:49:50.747Z,100806.81
2023-02-01T00:52:54.024Z,100802.59
2023-02-01T00:55:56.164Z,100802.75
2023-02-01T00:58:58.306Z,100798.75
2023-02-01T01:02:00.573Z,100789.81
2023-02-01T01:05:02.803Z,100796.22
2023-02-01T01:08:04.915Z,100792.66
2023-02-01T01:11:11.832Z,100794.69
2023-02-01T01:14:14.848Z,100792.53
2023-02-01T01:17:18.162Z,100788.78
2023-02-01T01:20:23.415Z,100781.25
2023-02-01T01:23:25.957Z,100785.59
2023-02-01T01:26:30.103Z,100787.13
2023-02-01T01:29:32.430Z,100786.13
2023-02-01T01:32:34.649Z,100779.06
2023-02-01T01:35:36.918Z,100780.22
2023-02-01T01:38:41.724Z,100779.72
2023-02-01T01:41:44.159Z,100773.69
2023-02-01T01:45:04.861Z,100774.84
2023-02-01T01:48:26.056Z,100771.34
2023-02-01T01:51:30.156Z,100772.84
2023-02-01T01:54:59.148Z,100772.34
2023-02-01T01:58:06.705Z,100773.69
2023-02-01T02:01:09.923Z,100765.75
2023-02-01T02:04:12.672Z,100760.06
2023-02-01T02:07:19.885Z,100764.78
2023-02-01T02:10:22.488Z,100758.19
2023-02-01T02:13:25.500Z,100761.91
2023-02-01T02:16:58.105Z,100767.28
2023-02-01T02:20:24.992Z,100763.59
2023-02-01T02:23:35.391Z,100757.88
2023-02-01T02:27:05.418Z,100754.16
2023-02-01T02:30:31.844Z,100752.31
2023-02-01T02:33:54.004Z,100747.09
2023-02-01T02:37:33.986Z,100748.97
2023-02-01T02:40:54.747Z,100740.38
2023-02-01T02:44:18.014Z,100736.16
2023-02-01T02:47:29.729Z,100727.41
2023-02-01T02:51:11.080Z,100733.97
2023-02-01T02:54:40.311Z,100734.16
2023-02-01T02:58:03.686Z,100734.47
2023-02-01T03:01:25.773Z,100735.31
2023-02-01T03:04:29.615Z,100732.44
2023-02-01T03:08:10.856Z,100736.47
2023-02-01T03:11:16.696Z,100726.41
2023-02-01T03:14:22.691Z,100722.19
2023-02-01T03:17:34.171Z,100729.59
2023-02-01T03:20:40.036Z,100734.09
2023-02-01T03:23:44.040Z,100725.56
2023-02-01T03:26:52.532Z,100717.66
2023-02-01T03:30:01.091Z,100718.16
2023-02-01T03:33:14.881Z,100720.00
2023-02-01T03:36:41.146Z,100715.63
2023-02-01T03:40:00.789Z,100717.28
2023-02-01T03:43:08.352Z,100723.03
2023-02-01T03:46:18.749Z,100726.03
2023-02-01T03:49:31.809Z,100713.09
2023-02-01T03:52:43.935Z,100723.84
2023-02-01T03:55:47.557Z,100717.13
2023-02-01T03:59:00.083Z,100717.75
2023-02-01T04:02:06.482Z,100711.91
2023-02-01T04:05:09.498Z,100715.75
2023-02-01T04:08:12.780Z,100706.19
2023-02-01T04:11:14.938Z,100716.94
2023-02-01T04:14:17.020Z,100697.66
2023-02-01T04:17:19.721Z,100710.25
2023-02-01T04:20:22.083Z,100702.00
2023-02-01T04:23:24.479Z,100711.94
2023-02-01T04:26:26.573Z,100715.13
2023-02-01T04:29:28.718Z,100709.56
2023-02-01T04:32:30.919Z,100707.06
2023-02-01T04:35:32.960Z,100704.38
2023-02-01T04:38:35.005Z,100706.34
2023-02-01T04:41:37.503Z,100705.16
2023-02-01T04:44:42.941Z,100694.41
2023-02-01T04:47:44.999Z,100692.56
2023-02-01T04:50:49.310Z,100686.38
2023-02-01T04:53:52.646Z,100673.06
2023-02-01T04:56:54.840Z,100675.09
2023-02-01T04:59:57.174Z,100665.31
2023-02-01T05:02:59.246Z,100671.72
2023-02-01T05:06:01.601Z,100670.38
2023-02-01T05:09:03.874Z,100674.91
2023-02-01T05:12:24.714Z,100679.28
2023-02-01T05:15:26.923Z,100676.25
2023-02-01T05:18:29.985Z,100683.16
2023-02-01T05:21:42.032Z,100674.59
2023-02-01T05:24:46.127Z,100674.94
2023-02-01T05:27:48.226Z,100668.38
2023-02-01T05:30:50.351Z,100674.72
2023-02-01T05:33:52.515Z,100669.22
2023-02-01T05:36:54.678Z,100671.38
2023-02-01T05:39:56.687Z,100669.53
2023-02-01T05:42:58.685Z,100684.16
2023-02-01T05:46:00.949Z,100663.34
2023-02-01T05:49:03.452Z,100676.13
2023-02-01T05:52:05.889Z,100679.28
2023-02-01T05:55:08.362Z,100680.16
2023-02-01T05:58:10.460Z,100684.66
2023-02-01T06:01:12.917Z,100684.84
2023-02-01T06:04:14.987Z,100677.47
2023-02-01T06:07:17.823Z,100677.81
2023-02-01T06:10:20.966Z,100677.28
2023-02-01T06:13:23.264Z,100685.03
2023-02-01T06:16:25.819Z,100690.22
2023-02-01T06:19:28.211Z,100680.66
2023-02-01T06:22:30.447Z,100678.63
2023-02-01T06:25:33.762Z,100673.78
2023-02-01T06:28:35.867Z,100674.78
2023-02-01T06:31:38.075Z,100676.97
2023-02-01T06:34:40.813Z,100683.22
2023-02-01T06:37:43.877Z,100683.22
2023-02-01T06:40:46.189Z,100684.72
2023-02-01T06:43:48.632Z,100687.41
2023-02-01T06:46:50.837Z,100686.75
2023-02-01T06:49:52.953Z,100685.09
2023-02-01T06:52:56.646Z,100683.22
2023-02-01T06:56:01.345Z,100687.78
2023-02-01T06:59:07.061Z,100680.72
2023-02-01T07:02:12.487Z,100683.41
2023-02-01T07:05:14.796Z,100691.81
2023-02-01T07:08:17.136Z,100683.41
2023-02-01T07:11:20.389Z,100684.25
2023-02-01T07:14:22.493Z,100686.28
2023-02-01T07:17:24.846Z,100678.19
2023-02-01T07:20:26.999Z,100675.34
2023-02-01T07:23:29.827Z,100664.38
2023-02-01T07:26:32.070Z,100670.78
2023-02-01T07:29:34.228Z,100662.53
2023-02-01T07:32:36.452Z,100666.72
2023-02-01T07:35:38.530Z,100664.88
2023-02-01T07:38:44.203Z,100654.44
2023-02-01T07:41:47.595Z,100660.50
2023-02-01T07:44:49.628Z,100659.81
2023-02-01T07:47:53.562Z,100662.84
2023-02-01T07:51:15.851Z,100673.78
2023-02-01T07:54:18.015Z,100651.91
2023-02-01T07:57:20.510Z,100672.44
2023-02-01T08:00:41.431Z,100676.16
2023-02-01T08:03:43.676Z,100678.84
2023-02-01T08:06:46.006Z,100682.91
2023-02-01T08:09:48.122Z,100684.41
2023-02-01T08:12:50.411Z,100689.13
2023-02-01T08:15:52.602Z,100689.47
2023-02-01T08:18:55.384Z,100683.56
2023-02-01T08:21:57.532Z,100685.91
2023-02-01T08:25:02.413Z,100681.34
2023-02-01T08:28:04.781Z,100681.84
2023-02-01T08:31:11.107Z,100682.53
2023-02-01T08:34:13.713Z,100683.53
2023-02-01T08:37:15.714Z,100662.09
2023-02-01T08:40:18.524Z,100658.06
2023-02-01T08:43:20.739Z,100663.09
2023-02-01T08:46:24.029Z,100658.91
2023-02-01T08:49:26.251Z,100653.66
2023-02-01T08:52:28.331Z,100658.06
2023-02-01T08:55:30.477Z,100651.53
2023-02-01T08:58:32.730Z,100639.06
2023-02-01T09:01:34.914Z,100634.72
2023-02-01T09:04:36.967Z,100636.72
2023-02-01T09:07:39.136Z,100637.22
2023-02-01T09:10:42.348Z,100636.50
2023-02-01T09:13:46.200Z,100630.44
2023-02-01T09:16:48.993Z,100626.22
2023-02-01T09:19:51.262Z,100622.84
2023-02-01T09:22:55.700Z,100617.78
2023-02-01T09:26:04.399Z,100623.16
2023-02-01T09:29:14.767Z,100610.03
2023-02-01T09:32:17.140Z,100622.84
2023-02-01T09:35:20.133Z,100608.72
2023-02-01T09:38:22.297Z,100605.63
2023-02-01T09:41:42.208Z,100601.41
2023-02-01T09:45:02.834Z,100596.22
2023-02-01T09:48:14.214Z,100593.03
2023-02-01T09:51:25.239Z,100599.75
2023-02-01T09:54:40.542Z,100600.72
2023-02-01T09:57:55.519Z,100595.81
2023-02-01T10:01:04.189Z,100589.19
2023-02-01T10:04:11.551Z,100579.44
2023-02-01T10:07:45.436Z,100577.41
2023-02-01T10:10:50.276Z,100578.91
2023-02-01T10:14:59.694Z,100573.63
2023-02-01T10:18:20.394Z,100582.88
2023-02-01T10:21:42.713Z,100580.69
2023-02-01T10:25:14.314Z,100582.00
2023-02-01T10:28:18.971Z,100583.31
2023-02-01T10:31:25.686Z,100580.69
2023-02-01T10:34:35.487Z,100583.03
2023-02-01T10:37:37.659Z,100592.31
2023-02-01T10:40:39.884Z,100593.00
2023-02-01T10:43:43.440Z,100592.50
2023-02-01T10:46:46.102Z,100584.81
2023-02-01T10:50:03.082Z,100575.69
2023-02-01T10:53:26.281Z,100574.78
2023-02-01T10:56:29.676Z,100568.22
2023-02-01T10:59:34.525Z,100559.63
2023-02-01T11:02:37.044Z,100560.00
2023-02-01T11:05:47.199Z,100552.09
2023-02-01T11:08:55.092Z,100549.59
2023-02-01T11:11:59.995Z,100540.88
2023-02-01T11:15:23.618Z,100541.63
2023-02-01T11:18:30.065Z,100541.34
2023-02-01T11:21:33.758Z,100534.84
2023-02-01T11:24:39.469Z,100544.75
2023-02-01T11:27:53.207Z,100516.59
2023-02-01T11:31:01.885Z,100534.97
2023-02-01T11:34:17.907Z,100539.53
2023-02-01T11:37:22.170Z,100540.56
2023-02-01T11:40:36.336Z,100522.13
2023-02-01T11:43:40.918Z,100531.56
2023-02-01T11:46:43.080Z,100536.78
2023-02-01T11:49:45.417Z,100544.72
2023-02-01T11:53:11.044Z,100540.91
2023-02-01T11:56:29.595Z,100544.72
2023-02-01T12:00:02.425Z,100542.38
2023-02-01T12:03:47.118Z,100542.13
2023-02-01T12:07:00.742Z,100545.91
2023-02-01T12:10:10.967Z,100551.63
2023-02-01T12:13:44.180Z,100543.69
2023-02-01T12:17:16.224Z,100557.94
2023-02-01T12:20:50.889Z,100562.69
2023-02-01T12:23:58.554Z,100558.84
2023-02-01T12:27:30.606Z,100561.13
2023-02-01T12:31:07.464Z,100558.25
2023-02-01T12:34:22.993Z,100570.56
2023-02-01T12:37:45.633Z,100569.34
2023-02-01T12:41:07.011Z,100565.00
2023-02-01T12:44:26.272Z,100569.47
2023-02-01T12:48:05.934Z,100551.81
2023-02-01T12:51:16.479Z,100562.41
2023-02-01T12:54:56.989Z,100563.59
2023-02-01T12:58:18.140Z,100571.13
2023-02-01T13:01:30.079Z,100571.88
2023-02-01T13:04:42.575Z,100584.34
2023-02-01T13:07:57.736Z,100582.53
2023-02-01T13:11:36.626Z,100579.59
2023-02-01T13:14:55.128Z,100569.88
2023-02-01T13:18:02.269Z,100562.94
2023-02-01T13:21:17.600Z,100588.16
2023-02-01T13:24:44.910Z,100582.59
2023-02-01T13:27:47.726Z,100569.84
2023-02-01T13:31:00.627Z,100581.41
2023-02-01T13:34:39.758Z,100575.81
2023-02-01T13:37:44.799Z,100577.56
2023-02-01T13:41:07.297Z,100576.00
2023-02-01T13:44:19.674Z,100572.34
2023-02-01T13:47:32.621Z,100579.97
2023-02-01T13:50:39.776Z,100584.72
2023-02-01T13:53:49.550Z,100568.72
2023-02-01T13:56:54.229Z,100585.91
2023-02-01T14:00:08.570Z,100581.50
2023-02-01T14:03:22.720Z,100584.22
2023-02-01T14:06:28.394Z,100591.81
2023-02-01T14:09:39.973Z,100580.91
2023-02-01T14:12:49.408Z,100574.84
2023-02-01T14:16:13.311Z,100584.75
2023-02-01T14:19:40.980Z,100589.00
2023-02-01T14:22:43.150Z,100586.50
2023-02-01T14:25:46.570Z,100587.50
2023-02-01T14:28:54.003Z,100592.25
2023-02-01T14:32:08.118Z,100592.50
2023-02-01T14:35:22.086Z,100595.00
2023-02-01T14:38:24.658Z,100600.22
2023-02-01T14:41:35.924Z,100593.19
2023-02-01T14:44:38.352Z,100590.50
2023-02-01T14:47:40.935Z,100595.25
2023-02-01T14:50:48.049Z,100601.66
2023-02-01T14:53:53.322Z,100600.88
2023-02-01T14:56:56.498Z,100607.59
2023-02-01T15:00:10.031Z,100597.16
2023-02-01T15:03:17.890Z,100603.09
2023-02-01T15:06:27.942Z,100608.13
2023-02-01T15:09:32.772Z,100609.66
2023-02-01T15:12:42.150Z,100596.19
2023-02-01T15:15:46.274Z,100603.44
2023-02-01T15:18:48.536Z,100598.59
2023-02-01T15:21:53.585Z,100609.19
2023-02-01T15:25:01.574Z,100615.66
2023-02-01T15:28:04.288Z,100599.28
2023-02-01T15:31:06.904Z,100616.09
2023-02-01T15:34:10.767Z,100613.59
2023-02-01T15:37:19.773Z,100628.91
2023-02-01T15:40:25.608Z,100618.50
2023-02-01T15:43:37.588Z,100619.00
2023-02-01T15:46:43.745Z,100628.78
2023-02-01T15:49:53.152Z,100627.91
2023-02-01T15:52:59.320Z,100627.81
2023-02-01T15:56:04.972Z,100636.41
2023-02-01T15:59:18.557Z,100620.09
2023-02-01T16:02:44.905Z,100616.94
2023-02-01T16:05:47.341Z,100623.50
2023-02-01T16:08:55.685Z,100635.28
2023-02-01T16:12:08.293Z,100652.97
2023-02-01T16:15:15.583Z,100654.97
2023-02-01T16:18:19.874Z,100664.59
2023-02-01T16:21:22.050Z,100672.88
2023-02-01T16:24:27.017Z,100697.50
2023-02-01T16:27:29.221Z,100698.81
2023-02-01T16:30:32.412Z,100679.63
2023-02-01T16:33:35.926Z,100687.16
2023-02-01T16:36:38.179Z,100665.56
2023-02-01T16:39:40.677Z,100667.53
2023-02-01T16:42:42.922Z,100652.56
2023-02-01T16:45:49.877Z,100654.41
2023-02-01T16:49:01.051Z,100661.69
2023-02-01T16:52:05.502Z,100657.19
2023-02-01T16:55:27.993Z,100657.34
2023-02-01T16:58:32.921Z,100657.88
2023-02-01T17:01:35.703Z,100658.72
2023-02-01T17:04:38.016Z,100650.81
2023-02-01T17:07:42.160Z,100642.22
2023-02-01T17:10:50.901Z,100649.56
2023-02-01T17:13:54.115Z,100657.59
2023-02-01T17:16:56.499Z,100659.94
2023-02-01T17:19:58.893Z,100640.22
2023-02-01T17:23:01.596Z,100614.31
2023-02-01T17:26:04.071Z,100605.25
2023-02-01T17:29:06.140Z,100598.25
2023-02-01T17:32:21.683Z,100595.13
2023-02-01T17:35:27.432Z,100601.72
2023-02-01T17:38:29.978Z,100588.03
2023-02-01T17:41:32.532Z,100597.81
2023-02-01T17:44:36.397Z,100600.44
2023-02-01T17:47:39.585Z,100613.00
2023-02-01T17:50:42.065Z,100624.00
2023-02-01T17:53:46.090Z,100633.75
2023-02-01T17:56:48.861Z,100635.94
2023-02-01T17:59:50.877Z,100636.53
2023-02-01T18:02:53.241Z,100642.81
2023-02-01T18:05:57.817Z,100647.56
2023-02-01T18:08:59.887Z,100643.75
2023-02-01T18:12:05.007Z,100643.84
2023-02-01T18:15:33.334Z,100641.44
2023-02-01T18:18:37.325Z,100629.00
2023-02-01T18:21:43.487Z,100634.63
2023-02-01T18:24:46.056Z,100639.41
2023-02-01T18:27:49.912Z,100645.16
2023-02-01T18:30:53.205Z,100642.91
2023-02-01T18:33:58.538Z,100625.00
2023-02-01T18:37:01.796Z,100634.41
2023-02-01T18:40:04.663Z,100631.47
2023-02-01T18:43:06.778Z,100620.91
2023-02-01T18:46:11.356Z,100621.22
2023-02-01T18:49:19.103Z,100593.72
2023-02-01T18:52:21.140Z,100601.97
2023-02-01T18:55:36.574Z,100620.78
2023-02-01T18:58:40.481Z,100602.56
2023-02-01T19:01:44.748Z,100601.47
2023-02-01T19:04:55.274Z,100608.00
2023-02-01T19:07:57.488Z,100610.31
2023-02-01T19:11:07.438Z,100585.22
2023-02-01T19:14:14.318Z,100601.84
2023-02-01T19:17:16.381Z,100600.00
2023-02-01T19:20:23.320Z,100605.16
2023-02-01T19:23:26.825Z,100590.38
2023-02-01T19:26:31.216Z,100601.94
2023-02-01T19:29:34.487Z,100558.53
2023-02-01T19:32:39.234Z,100587.00
2023-02-01T19:35:44.731Z,100585.13
2023-02-01T19:38:47.794Z,100598.16
2023-02-01T19:41:51.699Z,100589.34
2023-02-01T19:44:53.946Z,100592.81
2023-02-01T19:47:56.564Z,100596.81
2023-02-01T19:51:01.105Z,100593.63
2023-02-01T19:54:04.968Z,100591.00
2023-02-01T19:57:11.871Z,100596.00
2023-02-01T20:00:19.640Z,100606.00
2023-02-01T20:03:25.063Z,100589.28
2023-02-01T20:06:33.863Z,100593.84
2023-02-01T20:09:42.845Z,100596.16
2023-02-01T20:12:48.982Z,100595.97
2023-02-01T20:19:14.771Z,100570.63
2023-02-01T20:22:18.663Z,100588.34
2023-02-01T20:25:24.549Z,100591.63
2023-02-01T20:28:31.548Z,100599.50
2023-02-01T20:31:36.653Z,100587.34
2023-02-01T20:34:40.057Z,100603.09
2023-02-01T20:37:43.100Z,100607.72
2023-02-01T20:40:45.624Z,100613.38
2023-02-01T20:43:50.093Z,100605.22
2023-02-01T20:46:53.603Z,100595.03
2023-02-01T20:49:55.929Z,100600.69
2023-02-01T20:53:00.431Z,100604.34
2023-02-01T20:56:06.942Z,100609.13
2023-02-01T20:59:10.957Z,100602.84
2023-02-01T21:05:40.185Z,100624.38
2023-02-01T21:08:44.459Z,100634.81
2023-02-01T21:11:47.015Z,100630.31
2023-02-01T21:15:00.862Z,100624.88
2023-02-01T21:18:06.775Z,100617.03
2023-02-01T21:21:11.969Z,100627.59
2023-02-01T21:24:16.536Z,100612.75
2023-02-01T21:27:19.491Z,100613.78
2023-02-01T21:30:24.260Z,100614.38
2023-02-01T21:33:28.611Z,100608.84
2023-02-01T21:36:38.099Z,100607.84
2023-02-01T21:39:45.049Z,100616.63
2023-02-01T21:55:57.178Z,100612.53
2023-02-01T22:02:22.038Z,100617.56
2023-02-01T22:08:43.582Z,100612.50
2023-02-01T22:11:47.592Z,100576.19
2023-02-01T22:21:29.690Z,100605.97
2023-02-01T22:31:13.104Z,100603.69
2023-02-01T22:34:25.171Z,100604.75
2023-02-01T22:37:29.093Z,100608.78
2023-02-01T22:40:32.269Z,100597.66
2023-02-01T22:46:59.508Z,100594.34
2023-02-01T22:50:11.111Z,100602.34
2023-02-01T22:53:17.289Z,100587.03
2023-02-01T22:56:30.666Z,100585.47
2023-02-01T23:09:58.247Z,100589.47
2023-02-01T23:19:39.239Z,100578.56
2023-02-01T23:22:47.891Z,100585.00
2023-02-01T23:25:52.339Z,100582.19
2023-02-01T23:28:59.891Z,100579.84
2023-02-01T23:32:02.273Z,100599.31
2023-02-01T23:38:31.689Z,100587.38
2023-02-01T23:41:42.279Z,100584.16
2023-02-01T23:51:19.807Z,100587.94
2023-02-01T23:54:24.636Z,100594.53
2023-02-01T23:57:31.000Z,100600.94
